createdAt,value
2023-11-23T00:00:18.841Z,681.81
2023-11-23T00:01:18.266Z,681.91
2023-11-23T00:02:13.427Z,682.07
2023-11-23T00:03:08.556Z,682.11
2023-11-23T00:04:03.641Z,682.17
2023-11-23T00:04:58.764Z,682.23
2023-11-23T00:05:53.813Z,682.17
2023-11-23T00:06:48.886Z,682.09
2023-11-23T00:07:43.921Z,681.93
2023-11-23T00:08:39.023Z,681.85
2023-11-23T00:09:34.068Z,681.77
2023-11-23T00:10:29.050Z,681.65
2023-11-23T00:11:24.079Z,681.56
2023-11-23T00:12:19.209Z,681.52
2023-11-23T00:13:14.282Z,681.48
2023-11-23T00:14:09.500Z,681.44
2023-11-23T00:15:05.197Z,681.48
2023-11-23T00:16:00.397Z,681.46
2023-11-23T00:16:56.223Z,681.56
2023-11-23T00:17:51.275Z,681.64
2023-11-23T00:18:46.784Z,681.73
2023-11-23T00:19:42.300Z,681.83
2023-11-23T00:20:37.525Z,681.91
2023-11-23T00:21:32.658Z,681.93
2023-11-23T00:22:29.092Z,682.03
2023-11-23T00:23:24.312Z,682.03
2023-11-23T00:24:20.208Z,682.11
2023-11-23T00:25:15.620Z,682.13
2023-11-23T00:26:10.615Z,682.09
2023-11-23T00:27:06.364Z,682.05
2023-11-23T00:28:01.587Z,682.01
2023-11-23T00:28:57.311Z,682.01
2023-11-23T00:29:52.848Z,682.07
2023-11-23T00:30:47.662Z,682.13
2023-11-23T00:31:42.842Z,682.17
2023-11-23T00:32:39.214Z,682.15
2023-11-23T00:33:34.529Z,682.11
2023-11-23T00:34:30.170Z,682.09
2023-11-23T00:35:25.382Z,682.09
2023-11-23T00:36:20.438Z,682.13
2023-11-23T00:37:16.384Z,682.09
2023-11-23T00:38:11.550Z,682.11
2023-11-23T00:39:07.509Z,682.15
2023-11-23T00:40:02.712Z,682.17
2023-11-23T00:40:57.933Z,682.15
2023-11-23T00:41:53.705Z,682.09
2023-11-23T00:42:48.991Z,682.05
2023-11-23T00:43:44.105Z,682.01
2023-11-23T00:44:40.646Z,682.07
2023-11-23T00:45:35.540Z,682.11
2023-11-23T00:46:30.862Z,682.11
2023-11-23T00:47:25.940Z,682.07
2023-11-23T00:48:23.710Z,681.99
2023-11-23T00:49:18.757Z,681.93
2023-11-23T00:50:14.031Z,681.89
2023-11-23T00:51:09.235Z,681.79
2023-11-23T00:52:05.543Z,681.71
2023-11-23T00:53:00.725Z,681.60
2023-11-23T00:53:55.919Z,681.52
2023-11-23T00:54:51.660Z,681.46
2023-11-23T00:55:47.018Z,681.44
2023-11-23T00:56:42.090Z,681.38
2023-11-23T00:57:37.261Z,681.42
2023-11-23T00:58:32.428Z,681.40
2023-11-23T00:59:27.768Z,681.40
2023-11-23T01:00:24.028Z,681.34
2023-11-23T01:01:19.012Z,681.30
2023-11-23T01:02:14.255Z,681.30
2023-11-23T01:03:09.355Z,681.26
2023-11-23T01:04:04.501Z,681.22
2023-11-23T01:05:00.910Z,681.20
2023-11-23T01:05:55.998Z,681.20
2023-11-23T01:06:51.177Z,681.20
2023-11-23T01:07:46.366Z,681.22
2023-11-23T01:08:41.443Z,681.22
2023-11-23T01:09:36.459Z,681.24
2023-11-23T01:10:31.558Z,681.38
2023-11-23T01:11:26.542Z,681.50
2023-11-23T01:12:21.738Z,681.56
2023-11-23T01:13:16.766Z,681.64
2023-11-23T01:14:11.845Z,681.60
2023-11-23T01:15:06.927Z,681.65
2023-11-23T01:16:02.148Z,681.64
2023-11-23T01:16:57.870Z,681.65
2023-11-23T01:17:52.940Z,681.73
2023-11-23T01:18:47.938Z,681.79
2023-11-23T01:19:43.018Z,681.87
2023-11-23T01:20:38.108Z,681.87
2023-11-23T01:21:33.148Z,681.83
2023-11-23T01:22:28.166Z,681.79
2023-11-23T01:23:23.225Z,681.79
2023-11-23T01:24:18.512Z,681.77
2023-11-23T01:25:13.528Z,681.83
2023-11-23T01:26:08.550Z,681.89
2023-11-23T01:27:03.703Z,681.89
2023-11-23T01:27:58.665Z,681.87
2023-11-23T01:28:53.716Z,681.81
2023-11-23T01:29:48.786Z,681.81
2023-11-23T01:30:43.867Z,681.77
2023-11-23T01:31:38.949Z,681.69
2023-11-23T01:32:34.088Z,681.65
2023-11-23T01:33:30.834Z,681.58
2023-11-23T01:34:26.177Z,681.50
2023-11-23T01:35:21.040Z,681.44
2023-11-23T01:36:18.907Z,681.40
2023-11-23T01:37:11.095Z,681.42
2023-11-23T01:38:06.168Z,681.42
2023-11-23T01:39:01.255Z,681.48
2023-11-23T01:39:56.287Z,681.44
2023-11-23T01:40:51.890Z,681.40
2023-11-23T01:41:47.076Z,681.42
2023-11-23T01:42:42.209Z,681.46
2023-11-23T01:43:37.584Z,681.38
2023-11-23T01:44:32.730Z,681.34
2023-11-23T01:45:28.233Z,681.36
2023-11-23T01:46:23.134Z,681.34
2023-11-23T01:47:18.191Z,681.22
2023-11-23T01:48:13.437Z,681.18
2023-11-23T01:49:08.468Z,681.12
2023-11-23T01:50:03.596Z,681.08
2023-11-23T01:50:58.836Z,681.01
2023-11-23T01:51:53.957Z,680.97
2023-11-23T01:52:49.036Z,680.93
2023-11-23T01:53:44.112Z,680.91
2023-11-23T01:54:39.192Z,680.93
2023-11-23T01:55:34.189Z,680.93
2023-11-23T01:56:29.415Z,680.85
2023-11-23T01:57:24.408Z,680.89
2023-11-23T01:58:19.481Z,680.91
2023-11-23T01:59:14.511Z,680.87
2023-11-23T02:00:09.601Z,680.81
2023-11-23T02:01:04.789Z,680.83
2023-11-23T02:01:59.688Z,680.81
2023-11-23T02:02:54.805Z,680.79
2023-11-23T02:03:49.947Z,680.81
2023-11-23T02:04:44.835Z,680.77
2023-11-23T02:05:39.934Z,680.81
2023-11-23T02:06:34.957Z,680.81
2023-11-23T02:07:29.990Z,680.85
2023-11-23T02:08:25.063Z,680.93
2023-11-23T02:09:20.256Z,680.95
2023-11-23T02:10:15.525Z,680.95
2023-11-23T02:11:10.599Z,680.99
2023-11-23T02:12:05.810Z,680.99
2023-11-23T02:13:00.734Z,680.97
2023-11-23T02:13:55.729Z,681.01
2023-11-23T02:14:50.786Z,680.99
2023-11-23T02:15:46.420Z,681.01
2023-11-23T02:16:41.579Z,680.99
2023-11-23T02:17:36.841Z,680.95
2023-11-23T02:18:32.020Z,680.95
2023-11-23T02:19:27.030Z,680.93
2023-11-23T02:20:22.198Z,680.91
2023-11-23T02:21:17.359Z,680.97
2023-11-23T02:22:12.724Z,681.01
2023-11-23T02:23:07.611Z,681.03
2023-11-23T02:24:02.820Z,681.08
2023-11-23T02:24:57.936Z,681.14
2023-11-23T02:25:53.208Z,681.16
2023-11-23T02:26:48.488Z,681.20
2023-11-23T02:27:43.671Z,681.22
2023-11-23T02:28:38.692Z,681.20
2023-11-23T02:29:33.887Z,681.16
2023-11-23T02:30:29.169Z,681.10
2023-11-23T02:31:24.246Z,681.08
2023-11-23T02:32:19.481Z,681.01
2023-11-23T02:33:14.644Z,680.93
2023-11-23T02:34:09.688Z,680.81
2023-11-23T02:35:04.769Z,680.67
2023-11-23T02:35:59.851Z,680.59
2023-11-23T02:36:55.047Z,680.57
2023-11-23T02:37:53.078Z,680.51
2023-11-23T02:38:48.254Z,680.49
2023-11-23T02:39:43.279Z,680.49
2023-11-23T02:40:38.373Z,680.49
2023-11-23T02:41:33.359Z,680.47
2023-11-23T02:42:28.628Z,680.49
2023-11-23T02:43:23.499Z,680.55
2023-11-23T02:44:18.615Z,680.55
2023-11-23T02:45:13.751Z,680.55
2023-11-23T02:46:08.769Z,680.59
2023-11-23T02:47:03.773Z,680.55
2023-11-23T02:47:58.944Z,680.49
2023-11-23T02:48:54.063Z,680.45
2023-11-23T02:49:49.061Z,680.41
2023-11-23T02:50:44.136Z,680.43
2023-11-23T02:51:39.194Z,680.39
2023-11-23T02:52:34.280Z,680.32
2023-11-23T02:53:29.311Z,680.24
2023-11-23T02:54:24.478Z,680.24
2023-11-23T02:55:19.538Z,680.22
2023-11-23T02:56:14.663Z,680.20
2023-11-23T02:57:09.761Z,680.22
2023-11-23T02:58:04.763Z,680.18
2023-11-23T02:58:59.824Z,680.18
2023-11-23T02:59:54.898Z,680.18
2023-11-23T03:00:49.964Z,680.14
2023-11-23T03:01:44.971Z,680.18
2023-11-23T03:02:40.081Z,680.14
2023-11-23T03:03:35.146Z,680.18
2023-11-23T03:04:30.336Z,680.20
2023-11-23T03:05:25.385Z,680.20
2023-11-23T03:06:20.431Z,680.20
2023-11-23T03:07:15.476Z,680.24
2023-11-23T03:08:10.545Z,680.26
2023-11-23T03:09:05.566Z,680.26
2023-11-23T03:10:00.720Z,680.32
2023-11-23T03:10:55.723Z,680.38
2023-11-23T03:11:50.840Z,680.41
2023-11-23T03:12:45.858Z,680.49
2023-11-23T03:13:41.165Z,680.53
2023-11-23T03:14:36.175Z,680.53
2023-11-23T03:15:31.379Z,680.49
2023-11-23T03:16:26.542Z,680.53
2023-11-23T03:17:21.774Z,680.47
2023-11-23T03:18:17.227Z,680.41
2023-11-23T03:19:12.177Z,680.41
2023-11-23T03:20:07.313Z,680.39
2023-11-23T03:21:02.545Z,680.34
2023-11-23T03:21:58.004Z,680.24
2023-11-23T03:22:52.884Z,680.14
2023-11-23T03:23:48.056Z,680.02
2023-11-23T03:24:43.256Z,679.95
2023-11-23T03:25:38.416Z,679.93
2023-11-23T03:26:33.589Z,679.91
2023-11-23T03:27:28.756Z,679.93
2023-11-23T03:28:23.990Z,680.02
2023-11-23T03:29:19.162Z,680.14
2023-11-23T03:30:14.444Z,680.24
2023-11-23T03:31:09.443Z,680.41
2023-11-23T03:32:04.635Z,680.49
2023-11-23T03:33:00.052Z,680.53
2023-11-23T03:33:55.007Z,680.55
2023-11-23T03:34:50.357Z,680.57
2023-11-23T03:35:45.407Z,680.55
2023-11-23T03:36:40.536Z,680.59
2023-11-23T03:37:35.747Z,680.61
2023-11-23T03:38:30.942Z,680.61
2023-11-23T03:39:26.090Z,680.61
2023-11-23T03:40:20.970Z,680.63
2023-11-23T03:41:16.048Z,680.55
2023-11-23T03:42:11.124Z,680.55
2023-11-23T03:43:06.283Z,680.57
2023-11-23T03:44:01.444Z,680.55
2023-11-23T03:44:56.754Z,680.55
2023-11-23T03:45:51.824Z,680.57
2023-11-23T03:46:46.993Z,680.53
2023-11-23T03:47:42.094Z,680.49
2023-11-23T03:48:37.216Z,680.49
2023-11-23T03:49:32.230Z,680.57
2023-11-23T03:50:27.278Z,680.61
2023-11-23T03:51:22.396Z,680.61
2023-11-23T03:52:17.444Z,680.61
2023-11-23T03:53:12.546Z,680.59
2023-11-23T03:54:07.483Z,680.55
2023-11-23T03:55:02.498Z,680.51
2023-11-23T03:55:57.518Z,680.49
2023-11-23T03:56:52.607Z,680.41
2023-11-23T03:57:47.629Z,680.36
2023-11-23T03:58:42.662Z,680.30
2023-11-23T03:59:37.875Z,680.28
2023-11-23T04:00:33.103Z,680.24
2023-11-23T04:01:28.370Z,680.24
2023-11-23T04:02:23.464Z,680.22
2023-11-23T04:03:18.623Z,680.20
2023-11-23T04:04:13.778Z,680.12
2023-11-23T04:05:09.657Z,680.12
2023-11-23T04:06:04.855Z,680.12
2023-11-23T04:07:00.755Z,680.14
2023-11-23T04:07:55.884Z,680.10
2023-11-23T04:08:51.261Z,680.10
2023-11-23T04:09:46.897Z,680.08
2023-11-23T04:10:42.104Z,680.06
2023-11-23T04:11:37.306Z,680.00
2023-11-23T04:12:33.467Z,680.00
2023-11-23T04:13:28.816Z,679.95
2023-11-23T04:14:24.642Z,679.95
2023-11-23T04:15:19.696Z,680.02
2023-11-23T04:16:14.765Z,680.02
2023-11-23T04:17:10.648Z,680.02
2023-11-23T04:18:05.897Z,680.02
2023-11-23T04:19:01.654Z,680.04
2023-11-23T04:19:56.791Z,680.02
2023-11-23T04:20:52.182Z,680.04
2023-11-23T04:21:47.880Z,680.02
2023-11-23T04:22:43.137Z,680.06
2023-11-23T04:23:38.356Z,680.02
2023-11-23T04:24:34.536Z,680.00
2023-11-23T04:25:29.726Z,679.95
2023-11-23T04:26:25.488Z,679.93
2023-11-23T04:27:20.661Z,679.89
2023-11-23T04:28:15.843Z,679.83
2023-11-23T04:29:11.631Z,679.81
2023-11-23T04:30:06.866Z,679.81
2023-11-23T04:31:02.686Z,679.81
2023-11-23T04:31:57.750Z,679.85
2023-11-23T04:32:53.128Z,679.85
2023-11-23T04:33:49.187Z,679.83
2023-11-23T04:34:44.081Z,679.91
2023-11-23T04:35:39.379Z,679.91
2023-11-23T04:36:35.396Z,679.95
2023-11-23T04:37:30.602Z,679.93
2023-11-23T04:38:26.361Z,679.91
2023-11-23T04:39:21.636Z,679.93
2023-11-23T04:40:16.826Z,679.95
2023-11-23T04:41:12.584Z,680.00
2023-11-23T04:42:07.794Z,680.00
2023-11-23T04:43:03.686Z,679.93
2023-11-23T04:43:58.815Z,679.89
2023-11-23T04:44:54.385Z,679.83
2023-11-23T04:45:49.849Z,679.77
2023-11-23T04:46:45.170Z,679.73
2023-11-23T04:47:40.234Z,679.64
2023-11-23T04:48:36.691Z,679.62
2023-11-23T04:49:31.763Z,679.58
2023-11-23T04:50:27.664Z,679.64
2023-11-23T04:51:22.834Z,679.62
2023-11-23T04:52:18.204Z,679.70
2023-11-23T04:53:13.787Z,679.73
2023-11-23T04:54:09.051Z,679.77
2023-11-23T04:55:04.792Z,679.87
2023-11-23T04:56:00.001Z,679.91
2023-11-23T04:56:55.197Z,679.93
2023-11-23T04:57:51.077Z,679.93
2023-11-23T04:58:46.143Z,679.93
2023-11-23T04:59:41.334Z,679.93
2023-11-23T05:00:37.773Z,679.95
2023-11-23T05:01:32.823Z,679.91
2023-11-23T05:02:28.540Z,679.85
2023-11-23T05:03:23.803Z,679.83
2023-11-23T05:04:18.877Z,679.81
2023-11-23T05:05:14.064Z,679.79
2023-11-23T05:06:09.261Z,679.81
2023-11-23T05:07:05.162Z,679.77
2023-11-23T05:08:00.367Z,679.77
2023-11-23T05:08:55.700Z,679.70
2023-11-23T05:09:51.970Z,679.66
2023-11-23T05:10:47.393Z,679.60
2023-11-23T05:11:42.989Z,679.60
2023-11-23T05:12:38.186Z,679.64
2023-11-23T05:13:33.489Z,679.64
2023-11-23T05:14:29.257Z,679.58
2023-11-23T05:15:24.472Z,679.58
2023-11-23T05:16:20.378Z,679.56
2023-11-23T05:17:15.408Z,679.52
2023-11-23T05:18:10.791Z,679.50
2023-11-23T05:19:06.570Z,679.50
2023-11-23T05:20:01.796Z,679.56
2023-11-23T05:20:57.302Z,679.64
2023-11-23T05:21:52.214Z,679.66
2023-11-23T05:22:47.365Z,679.62
2023-11-23T05:23:42.434Z,679.62
2023-11-23T05:24:37.584Z,679.64
2023-11-23T05:25:36.305Z,679.68
2023-11-23T05:26:31.377Z,679.68
2023-11-23T05:27:26.658Z,679.77
2023-11-23T05:28:21.704Z,679.79
2023-11-23T05:29:16.747Z,679.85
2023-11-23T05:30:11.801Z,679.91
2023-11-23T05:31:06.933Z,679.93
2023-11-23T05:32:01.958Z,679.89
2023-11-23T05:32:57.077Z,679.83
2023-11-23T05:33:52.173Z,679.79
2023-11-23T05:34:47.230Z,679.77
2023-11-23T05:35:42.328Z,679.75
2023-11-23T05:36:37.370Z,679.75
2023-11-23T05:37:32.439Z,679.75
2023-11-23T05:38:27.535Z,679.75
2023-11-23T05:39:22.644Z,679.73
2023-11-23T05:40:17.741Z,679.73
2023-11-23T05:41:12.794Z,679.77
2023-11-23T05:42:07.891Z,679.73
2023-11-23T05:43:05.790Z,679.79
2023-11-23T05:43:57.940Z,679.77
2023-11-23T05:44:53.004Z,679.77
2023-11-23T05:45:48.053Z,679.72
2023-11-23T05:46:43.295Z,679.72
2023-11-23T05:47:38.382Z,679.75
2023-11-23T05:48:33.498Z,679.77
2023-11-23T05:49:28.506Z,679.73
2023-11-23T05:50:23.587Z,679.72
2023-11-23T05:51:18.680Z,679.70
2023-11-23T05:52:13.601Z,679.73
2023-11-23T05:53:08.704Z,679.72
2023-11-23T05:54:03.948Z,679.79
2023-11-23T05:54:59.284Z,679.75
2023-11-23T05:55:55.572Z,679.73
2023-11-23T05:56:50.850Z,679.72
2023-11-23T05:57:46.583Z,679.72
2023-11-23T05:58:41.804Z,679.72
2023-11-23T05:59:36.862Z,679.73
2023-11-23T06:00:32.827Z,679.68
2023-11-23T06:01:28.031Z,679.68
2023-11-23T06:02:23.993Z,679.68
2023-11-23T06:03:21.224Z,679.62
2023-11-23T06:04:14.327Z,679.62
2023-11-23T06:05:10.089Z,679.60
2023-11-23T06:06:05.300Z,679.58
2023-11-23T06:07:00.641Z,679.56
2023-11-23T06:07:56.741Z,679.52
2023-11-23T06:08:52.003Z,679.58
2023-11-23T06:09:47.807Z,679.62
2023-11-23T06:10:42.973Z,679.72
2023-11-23T06:11:38.332Z,679.77
2023-11-23T06:12:33.957Z,679.85
2023-11-23T06:13:29.162Z,679.89
2023-11-23T06:14:25.038Z,679.95
2023-11-23T06:15:20.103Z,680.06
2023-11-23T06:16:15.437Z,680.10
2023-11-23T06:17:11.175Z,680.08
2023-11-23T06:18:13.530Z,680.14
2023-11-23T06:19:04.087Z,680.20
2023-11-23T06:19:56.701Z,680.16
2023-11-23T06:20:52.692Z,680.14
2023-11-23T06:21:47.699Z,680.14
2023-11-23T06:22:43.086Z,680.04
2023-11-23T06:23:39.189Z,680.00
2023-11-23T06:24:34.436Z,679.89
2023-11-23T06:25:30.267Z,679.83
2023-11-23T06:26:25.565Z,679.83
2023-11-23T06:27:21.173Z,679.81
2023-11-23T06:28:16.634Z,679.77
2023-11-23T06:29:11.972Z,679.77
2023-11-23T06:30:07.717Z,679.87
2023-11-23T06:31:02.989Z,680.00
2023-11-23T06:32:00.396Z,679.95
2023-11-23T06:32:54.071Z,680.00
2023-11-23T06:33:49.513Z,680.04
2023-11-23T06:34:44.701Z,680.02
2023-11-23T06:35:41.061Z,680.02
2023-11-23T06:36:36.303Z,680.02
2023-11-23T06:37:32.246Z,680.04
2023-11-23T06:38:27.286Z,680.10
2023-11-23T06:39:22.662Z,680.06
2023-11-23T06:40:18.295Z,680.06
2023-11-23T06:41:13.697Z,680.08
2023-11-23T06:42:09.515Z,680.02
2023-11-23T06:43:04.872Z,680.02
2023-11-23T06:44:00.112Z,680.04
2023-11-23T06:44:55.924Z,680.04
2023-11-23T06:45:51.173Z,680.14
2023-11-23T06:46:46.700Z,680.12
2023-11-23T06:47:42.704Z,680.12
2023-11-23T06:48:38.102Z,680.22
2023-11-23T06:49:33.834Z,680.22
2023-11-23T06:50:29.252Z,680.28
2023-11-23T06:51:24.614Z,680.28
2023-11-23T06:52:19.769Z,680.26
2023-11-23T06:53:14.842Z,680.24
2023-11-23T06:54:09.960Z,680.30
2023-11-23T06:55:04.930Z,680.26
2023-11-23T06:56:00.062Z,680.26
2023-11-23T06:56:55.066Z,680.22
2023-11-23T06:57:50.217Z,680.22
2023-11-23T06:58:45.142Z,680.18
2023-11-23T06:59:40.272Z,680.18
2023-11-23T07:00:35.554Z,680.22
2023-11-23T07:01:30.490Z,680.18
2023-11-23T07:02:25.735Z,680.18
2023-11-23T07:03:20.605Z,680.14
2023-11-23T07:04:15.596Z,680.16
2023-11-23T07:05:14.587Z,680.18
2023-11-23T07:06:09.632Z,680.16
2023-11-23T07:07:04.829Z,680.16
2023-11-23T07:07:59.650Z,680.18
2023-11-23T07:08:54.695Z,680.16
2023-11-23T07:09:49.733Z,680.16
2023-11-23T07:10:44.787Z,680.14
2023-11-23T07:11:39.774Z,680.16
2023-11-23T07:12:34.905Z,680.16
2023-11-23T07:13:29.940Z,680.18
2023-11-23T07:14:24.987Z,680.18
2023-11-23T07:15:20.168Z,680.16
2023-11-23T07:16:15.190Z,680.30
2023-11-23T07:17:10.077Z,680.73
2023-11-23T07:18:05.244Z,681.22
2023-11-23T07:19:00.184Z,681.50
2023-11-23T07:19:55.240Z,681.54
2023-11-23T07:20:50.436Z,681.71
2023-11-23T07:21:45.539Z,682.15
2023-11-23T07:22:40.926Z,682.77
2023-11-23T07:23:36.302Z,683.30
2023-11-23T07:24:35.163Z,683.83
2023-11-23T07:25:30.940Z,684.11
2023-11-23T07:26:25.847Z,684.09
2023-11-23T07:27:21.258Z,683.83
2023-11-23T07:28:16.478Z,683.75
2023-11-23T07:29:11.397Z,683.95
2023-11-23T07:30:06.457Z,684.27
2023-11-23T07:31:01.566Z,684.56
2023-11-23T07:31:56.586Z,685.05
2023-11-23T07:32:51.748Z,685.32
2023-11-23T07:33:46.688Z,685.64
2023-11-23T07:34:41.751Z,685.91
2023-11-23T07:35:36.792Z,686.17
2023-11-23T07:36:31.872Z,686.34
2023-11-23T07:37:26.898Z,686.17
2023-11-23T07:39:48.395Z,686.19
2023-11-23T07:40:43.400Z,686.46
2023-11-23T07:41:38.877Z,686.80
2023-11-23T07:42:34.231Z,687.01
2023-11-23T07:43:29.871Z,686.97
2023-11-23T07:44:25.023Z,687.37
2023-11-23T07:45:20.706Z,687.51
2023-11-23T07:46:15.842Z,687.54
2023-11-23T07:47:11.300Z,687.51
2023-11-23T07:48:06.845Z,687.65
2023-11-23T07:49:02.088Z,687.73
2023-11-23T07:49:57.513Z,687.67
2023-11-23T07:50:52.890Z,687.47
2023-11-23T07:51:48.162Z,687.39
2023-11-23T07:52:43.658Z,686.97
2023-11-23T07:53:39.111Z,686.66
2023-11-23T07:54:34.325Z,686.66
2023-11-23T07:55:29.610Z,686.28
2023-11-23T07:56:24.961Z,686.09
2023-11-23T07:57:20.465Z,686.32
2023-11-23T07:58:15.774Z,686.09
2023-11-23T07:59:11.011Z,686.28
2023-11-23T08:00:06.762Z,686.40
2023-11-23T08:01:01.940Z,686.70
2023-11-23T08:01:57.151Z,687.03
2023-11-23T08:02:52.648Z,687.23
2023-11-23T08:03:48.101Z,687.19
2023-11-23T08:04:43.176Z,687.33
2023-11-23T08:05:38.631Z,687.65
2023-11-23T08:06:34.041Z,687.99
2023-11-23T08:07:29.402Z,688.11
2023-11-23T08:08:24.914Z,688.19
2023-11-23T08:09:20.151Z,688.42
2023-11-23T08:10:15.524Z,688.64
2023-11-23T08:11:10.877Z,688.29
2023-11-23T08:12:06.312Z,688.15
2023-11-23T08:13:01.640Z,688.17
2023-11-23T08:13:56.918Z,688.31
2023-11-23T08:14:52.384Z,688.19
2023-11-23T08:15:47.751Z,687.79
2023-11-23T08:16:43.196Z,687.83
2023-11-23T08:17:38.376Z,688.07
2023-11-23T08:18:40.334Z,688.11
2023-11-23T08:19:30.223Z,688.36
2023-11-23T08:20:24.357Z,688.64
2023-11-23T08:21:19.669Z,688.80
2023-11-23T08:22:15.048Z,688.78
2023-11-23T08:23:10.365Z,688.66
2023-11-23T08:24:05.867Z,688.56
2023-11-23T08:25:01.285Z,688.48
2023-11-23T08:25:56.577Z,688.68
2023-11-23T08:26:51.899Z,688.80
2023-11-23T08:27:47.250Z,688.54
2023-11-23T08:28:42.556Z,687.97
2023-11-23T08:29:38.107Z,687.65
2023-11-23T08:30:33.565Z,687.56
2023-11-23T08:31:28.782Z,687.93
2023-11-23T08:32:24.018Z,688.17
2023-11-23T08:33:19.590Z,688.44
2023-11-23T08:34:15.197Z,688.66
2023-11-23T08:35:10.378Z,688.98
2023-11-23T08:36:05.583Z,689.31
2023-11-23T08:37:00.902Z,689.64
2023-11-23T08:37:56.202Z,689.57
2023-11-23T08:38:51.671Z,689.27
2023-11-23T08:39:46.961Z,689.09
2023-11-23T08:40:42.282Z,688.72
2023-11-23T08:41:37.706Z,688.74
2023-11-23T08:42:33.042Z,688.94
2023-11-23T08:43:28.338Z,689.41
2023-11-23T08:44:24.059Z,689.45
2023-11-23T08:45:19.245Z,689.80
2023-11-23T08:46:14.556Z,689.98
2023-11-23T08:47:09.986Z,690.25
2023-11-23T08:48:05.397Z,690.48
2023-11-23T08:49:00.720Z,690.66
2023-11-23T08:49:56.293Z,690.52
2023-11-23T08:50:51.733Z,689.96
2023-11-23T08:51:47.085Z,689.27
2023-11-23T08:52:42.496Z,688.88
2023-11-23T08:53:37.849Z,688.70
2023-11-23T08:54:33.192Z,688.66
2023-11-23T08:55:28.717Z,688.66
2023-11-23T08:56:23.879Z,688.66
2023-11-23T08:57:19.409Z,688.64
2023-11-23T08:58:14.731Z,688.52
2023-11-23T08:59:10.189Z,688.70
2023-11-23T09:00:05.533Z,689.31
2023-11-23T09:01:00.878Z,689.94
2023-11-23T09:02:02.121Z,690.38
2023-11-23T09:02:52.975Z,690.78
2023-11-23T09:03:47.199Z,690.12
2023-11-23T09:04:45.271Z,689.94
2023-11-23T09:05:38.022Z,689.51
2023-11-23T09:06:33.340Z,689.23
2023-11-23T09:07:28.625Z,688.92
2023-11-23T09:08:23.996Z,688.86
2023-11-23T09:09:19.900Z,689.17
2023-11-23T09:10:14.666Z,689.72
2023-11-23T09:11:09.976Z,689.51
2023-11-23T09:12:05.452Z,689.03
2023-11-23T09:13:00.709Z,689.23
2023-11-23T09:13:56.096Z,689.03
2023-11-23T09:14:51.404Z,689.27
2023-11-23T09:15:46.921Z,689.39
2023-11-23T09:16:42.055Z,689.57
2023-11-23T09:17:37.619Z,689.60
2023-11-23T09:18:32.909Z,690.04
2023-11-23T09:19:28.239Z,690.21
2023-11-23T09:20:23.849Z,690.00
2023-11-23T09:21:19.876Z,690.12
2023-11-23T09:22:14.370Z,690.56
2023-11-23T09:23:09.784Z,690.80
2023-11-23T09:24:05.205Z,691.17
2023-11-23T09:25:00.714Z,690.94
2023-11-23T09:25:56.317Z,690.74
2023-11-23T09:26:51.591Z,690.60
2023-11-23T09:27:46.927Z,690.56
2023-11-23T09:28:42.355Z,690.94
2023-11-23T09:29:37.714Z,690.82
2023-11-23T09:30:33.202Z,690.28
2023-11-23T09:31:28.576Z,690.28
2023-11-23T09:32:23.884Z,690.68
2023-11-23T09:33:20.562Z,690.98
2023-11-23T09:34:14.775Z,690.90
2023-11-23T09:35:10.165Z,690.76
2023-11-23T09:36:05.730Z,691.03
2023-11-23T09:37:00.922Z,691.39
2023-11-23T09:37:56.442Z,691.61
2023-11-23T09:38:51.822Z,691.49
2023-11-23T09:39:47.392Z,691.55
2023-11-23T09:40:42.699Z,691.94
2023-11-23T09:41:38.117Z,692.21
2023-11-23T09:42:33.486Z,692.65
2023-11-23T09:43:28.854Z,692.71
2023-11-23T09:44:24.299Z,692.63
2023-11-23T09:45:21.143Z,692.20
2023-11-23T09:46:15.216Z,691.66
2023-11-23T09:47:10.642Z,691.21
2023-11-23T09:48:05.959Z,691.13
2023-11-23T09:49:01.541Z,690.66
2023-11-23T09:49:56.772Z,690.80
2023-11-23T09:50:52.262Z,691.23
2023-11-23T09:51:47.502Z,691.86
2023-11-23T09:52:43.025Z,692.41
2023-11-23T09:53:38.491Z,692.61
2023-11-23T09:54:34.006Z,691.90
2023-11-23T09:55:29.165Z,691.51
2023-11-23T09:56:24.700Z,691.13
2023-11-23T09:57:20.018Z,690.72
2023-11-23T09:58:15.367Z,690.12
2023-11-23T09:59:10.711Z,690.36
2023-11-23T10:00:06.240Z,690.16
2023-11-23T10:01:01.577Z,690.25
2023-11-23T10:01:57.020Z,690.44
2023-11-23T10:02:52.366Z,690.54
2023-11-23T10:03:47.783Z,691.07
2023-11-23T10:04:43.162Z,691.23
2023-11-23T10:05:38.864Z,691.59
2023-11-23T10:06:34.258Z,692.12
2023-11-23T10:07:29.699Z,692.04
2023-11-23T10:08:25.045Z,691.78
2023-11-23T10:09:20.892Z,691.62
2023-11-23T10:10:15.951Z,691.74
2023-11-23T10:11:11.524Z,691.47
2023-11-23T10:12:07.279Z,691.21
2023-11-23T10:13:02.542Z,691.45
2023-11-23T10:13:57.885Z,691.94
2023-11-23T10:14:53.289Z,692.45
2023-11-23T10:15:48.717Z,692.97
2023-11-23T10:16:44.135Z,693.35
2023-11-23T10:17:39.631Z,693.59
2023-11-23T10:18:35.016Z,692.97
2023-11-23T10:19:30.381Z,692.61
2023-11-23T10:20:25.825Z,692.63
2023-11-23T10:21:21.240Z,692.59
2023-11-23T10:22:16.779Z,693.07
2023-11-23T10:23:12.025Z,693.25
2023-11-23T10:24:07.423Z,693.03
2023-11-23T10:25:02.790Z,692.04
2023-11-23T10:25:59.400Z,691.72
2023-11-23T10:26:53.614Z,691.76
2023-11-23T10:27:49.061Z,692.12
2023-11-23T10:28:44.533Z,692.35
2023-11-23T10:29:39.907Z,692.76
2023-11-23T10:30:35.436Z,692.59
2023-11-23T10:31:30.994Z,692.61
2023-11-23T10:32:26.462Z,692.65
2023-11-23T10:33:22.031Z,692.69
2023-11-23T10:34:17.428Z,692.80
2023-11-23T10:35:12.764Z,693.13
2023-11-23T10:36:08.222Z,693.47
2023-11-23T10:37:03.719Z,693.15
2023-11-23T10:37:59.070Z,692.51
2023-11-23T10:38:54.507Z,692.43
2023-11-23T10:39:49.987Z,692.33
2023-11-23T10:40:45.286Z,692.20
2023-11-23T10:41:40.675Z,691.59
2023-11-23T10:42:36.145Z,691.98
2023-11-23T10:43:31.520Z,692.35
2023-11-23T10:44:27.171Z,692.33
2023-11-23T10:45:22.999Z,692.00
2023-11-23T10:46:17.840Z,692.02
2023-11-23T10:47:13.300Z,691.90
2023-11-23T10:48:08.728Z,691.39
2023-11-23T10:49:04.134Z,691.19
2023-11-23T10:49:59.671Z,691.19
2023-11-23T10:50:56.360Z,691.41
2023-11-23T10:51:50.753Z,691.78
2023-11-23T10:52:45.937Z,691.55
2023-11-23T10:53:41.629Z,690.92
2023-11-23T10:54:36.858Z,691.19
2023-11-23T10:55:32.327Z,691.76
2023-11-23T10:56:28.502Z,691.64
2023-11-23T10:57:25.369Z,691.68
2023-11-23T10:58:19.383Z,692.06
2023-11-23T10:59:14.697Z,692.71
2023-11-23T11:00:10.028Z,693.25
2023-11-23T11:01:05.676Z,693.62
2023-11-23T11:02:01.166Z,693.41
2023-11-23T11:02:56.734Z,692.45
2023-11-23T11:03:52.021Z,692.57
2023-11-23T11:04:47.504Z,692.53
2023-11-23T11:05:47.406Z,692.31
2023-11-23T11:06:42.441Z,692.35
2023-11-23T11:07:37.800Z,692.41
2023-11-23T11:08:33.237Z,692.49
2023-11-23T11:09:30.475Z,692.25
2023-11-23T11:10:24.057Z,692.31
2023-11-23T11:11:19.416Z,692.04
2023-11-23T11:12:15.043Z,691.53
2023-11-23T11:13:10.191Z,691.23
2023-11-23T11:14:05.793Z,691.17
2023-11-23T11:15:01.007Z,691.21
2023-11-23T11:15:56.545Z,691.43
2023-11-23T11:16:52.057Z,691.35
2023-11-23T11:17:47.575Z,690.88
2023-11-23T11:18:42.792Z,690.78
2023-11-23T11:19:37.891Z,690.99
2023-11-23T11:20:32.952Z,691.17
2023-11-23T11:21:30.117Z,691.51
2023-11-23T11:22:23.309Z,691.55
2023-11-23T11:23:18.375Z,691.94
2023-11-23T11:24:13.434Z,692.04
2023-11-23T11:25:08.524Z,691.76
2023-11-23T11:26:03.533Z,691.57
2023-11-23T11:27:00.376Z,691.55
2023-11-23T11:27:55.345Z,692.00
2023-11-23T11:28:50.467Z,692.45
2023-11-23T11:29:45.941Z,692.65
2023-11-23T11:30:40.726Z,692.25
2023-11-23T11:31:35.744Z,691.90